Walcott, Canada
Current Conditions -  °F | °C
As of 11:00 PM on Wednesday 22 Oct 2014 (Local Time) from CYYD Reporting Station
Overcast Overcast  
Wind Chill: 41°   Ceiling: 3400
Heat Index: 41°   Visibility: 9mi
Dew Point: 41°   Wind: 0mph
Humidity: 100%   Direction: NA
Pressure: 29.42"   Gusts: NA
Location:  54.52°N, 126.85°W
Report Text: CYYD 230600Z AUTO 00000KT 9SM SCT027 OVC034 05/05 A2942 RMK SLP973
Loading
Personal Weather Stations






























Interactive Weather Map
Tropical Storm Tracking
New forecast layout! Learn more

10-Day Weather Forecast

Advertisements
Track Severe Weather on mobile